createdAt,value
2023-05-12T00:00:11.562Z,4.47
2023-05-12T00:02:37.852Z,5.03
2023-05-12T00:05:05.574Z,4.20
2023-05-12T00:07:31.810Z,4.50
2023-05-12T00:09:58.072Z,4.60
2023-05-12T00:12:25.124Z,4.67
2023-05-12T00:14:51.414Z,4.87
2023-05-12T00:17:17.692Z,4.60
2023-05-12T00:19:44.187Z,5.10
2023-05-12T00:22:11.344Z,4.70
2023-05-12T00:24:37.746Z,4.63
2023-05-12T00:27:04.242Z,4.37
2023-05-12T00:29:30.557Z,4.50
2023-05-12T00:31:56.961Z,4.67
2023-05-12T00:34:23.314Z,5.07
2023-05-12T00:36:49.581Z,4.50
2023-05-12T00:39:15.908Z,4.43
2023-05-12T00:41:42.630Z,4.20
2023-05-12T00:44:08.864Z,4.67
2023-05-12T00:46:35.085Z,4.37
2023-05-12T00:49:01.367Z,4.90
2023-05-12T00:51:27.814Z,5.00
2023-05-12T00:53:55.407Z,4.77
2023-05-12T00:56:21.864Z,4.57
2023-05-12T00:58:48.132Z,4.70
2023-05-12T01:01:14.419Z,4.60
2023-05-12T01:03:40.774Z,4.83
2023-05-12T01:06:12.762Z,4.83
2023-05-12T01:08:41.527Z,4.53
2023-05-12T01:11:08.047Z,5.07
2023-05-12T01:13:34.352Z,4.77
2023-05-12T01:16:02.423Z,4.80
2023-05-12T01:18:28.888Z,5.10
2023-05-12T01:20:56.372Z,4.30
2023-05-12T01:23:27.023Z,4.20
2023-05-12T01:25:54.918Z,5.00
2023-05-12T01:28:21.555Z,4.90
2023-05-12T01:30:48.158Z,4.73
2023-05-12T01:33:14.490Z,4.77
2023-05-12T01:35:40.803Z,4.67
2023-05-12T01:38:07.068Z,5.10
2023-05-12T01:40:33.884Z,5.40
2023-05-12T01:43:00.197Z,4.80
2023-05-12T01:45:26.750Z,4.60
2023-05-12T01:47:53.041Z,5.17
2023-05-12T01:50:19.492Z,5.10
2023-05-12T01:52:46.293Z,4.97
2023-05-12T01:55:12.561Z,5.03
2023-05-12T01:57:39.104Z,4.60
2023-05-12T02:00:05.761Z,4.93
2023-05-12T02:02:33.911Z,4.77
2023-05-12T02:05:00.262Z,5.07
2023-05-12T02:07:26.510Z,4.60
2023-05-12T02:09:53.113Z,5.30
2023-05-12T02:12:19.360Z,5.00
2023-05-12T02:14:45.603Z,4.57
2023-05-12T02:17:11.841Z,4.57
2023-05-12T02:19:38.098Z,4.80
2023-05-12T02:22:04.499Z,4.97
2023-05-12T02:24:30.914Z,5.20
2023-05-12T02:26:57.376Z,4.63
2023-05-12T02:29:23.715Z,4.83
2023-05-12T02:31:50.076Z,4.97
2023-05-12T02:34:16.352Z,5.10
2023-05-12T02:36:42.874Z,5.23
2023-05-12T02:39:09.168Z,4.90
2023-05-12T02:41:35.396Z,4.77
2023-05-12T02:44:01.633Z,5.00
2023-05-12T02:46:27.874Z,5.20
2023-05-12T02:48:54.113Z,5.20
2023-05-12T02:51:20.433Z,5.30
2023-05-12T02:53:46.822Z,5.07
2023-05-12T02:56:13.141Z,4.80
2023-05-12T02:58:39.845Z,4.87
2023-05-12T03:01:11.329Z,5.13
2023-05-12T03:03:38.789Z,4.97
2023-05-12T03:06:06.041Z,5.33
2023-05-12T03:08:32.897Z,4.97
2023-05-12T03:10:59.243Z,5.37
2023-05-12T03:13:25.472Z,5.30
2023-05-12T03:15:51.694Z,4.60
2023-05-12T03:18:18.072Z,5.33
2023-05-12T03:20:44.385Z,5.07
2023-05-12T03:23:10.679Z,5.17
2023-05-12T03:25:36.954Z,5.20
2023-05-12T03:28:03.630Z,5.30
2023-05-12T03:30:30.126Z,5.60
2023-05-12T03:32:56.444Z,5.10
2023-05-12T03:35:22.863Z,5.80
2023-05-12T03:37:49.173Z,5.23
2023-05-12T03:40:18.659Z,5.13
2023-05-12T03:42:45.802Z,5.30
2023-05-12T03:45:12.422Z,5.63
2023-05-12T03:47:40.560Z,5.50
2023-05-12T03:50:07.891Z,6.10
2023-05-12T03:52:34.309Z,5.43
2023-05-12T03:55:00.607Z,5.47
2023-05-12T03:57:26.859Z,5.30
2023-05-12T03:59:53.082Z,5.43
2023-05-12T04:02:19.491Z,5.10
2023-05-12T04:04:45.813Z,5.40
2023-05-12T04:07:12.355Z,5.23
2023-05-12T04:09:38.623Z,5.90
2023-05-12T04:12:05.367Z,4.90
2023-05-12T04:14:41.820Z,5.90
2023-05-12T04:17:09.028Z,5.40
2023-05-12T04:19:35.240Z,5.23
2023-05-12T04:22:01.478Z,5.37
2023-05-12T04:24:33.070Z,6.00
2023-05-12T04:26:59.310Z,5.70
2023-05-12T04:29:25.645Z,5.53
2023-05-12T04:31:54.074Z,5.30
2023-05-12T04:34:20.378Z,6.07
2023-05-12T04:36:46.742Z,5.77
2023-05-12T04:39:12.980Z,5.60
2023-05-12T04:41:39.217Z,5.40
2023-05-12T04:44:05.669Z,5.87
2023-05-12T04:46:32.198Z,6.03
2023-05-12T04:48:58.483Z,5.40
2023-05-12T04:51:24.721Z,5.43
2023-05-12T04:53:51.094Z,5.93
2023-05-12T04:56:17.599Z,5.73
2023-05-12T04:58:43.828Z,5.77
2023-05-12T05:01:12.267Z,6.00
2023-05-12T05:03:38.969Z,5.67
2023-05-12T05:06:05.404Z,5.53
2023-05-12T05:08:31.805Z,5.70
2023-05-12T05:10:58.061Z,5.80
2023-05-12T05:13:24.357Z,5.93
2023-05-12T05:15:51.658Z,6.00
2023-05-12T05:18:18.026Z,5.63
2023-05-12T05:20:45.778Z,5.70
2023-05-12T05:23:20.531Z,6.00
2023-05-12T05:25:46.832Z,5.47
2023-05-12T05:28:13.076Z,6.10
2023-05-12T05:30:39.360Z,5.77
2023-05-12T05:33:05.706Z,5.80
2023-05-12T05:35:32.073Z,6.57
2023-05-12T05:37:58.489Z,5.43
2023-05-12T05:40:24.832Z,6.00
2023-05-12T05:42:51.096Z,5.63
2023-05-12T05:45:17.415Z,5.40
2023-05-12T05:47:43.778Z,5.27
2023-05-12T05:50:10.264Z,5.73
2023-05-12T05:52:36.535Z,5.47
2023-05-12T05:55:03.181Z,5.47
2023-05-12T05:57:29.441Z,5.03
2023-05-12T05:59:55.801Z,5.33
2023-05-12T06:02:23.520Z,4.80
2023-05-12T06:04:50.057Z,5.07
2023-05-12T06:07:16.452Z,4.97
2023-05-12T06:09:42.692Z,4.93
2023-05-12T06:12:08.936Z,5.43
2023-05-12T06:14:35.210Z,4.83
2023-05-12T06:17:01.629Z,5.20
2023-05-12T06:19:28.074Z,5.70
2023-05-12T06:21:54.296Z,5.67
2023-05-12T06:24:20.604Z,5.47
2023-05-12T06:26:46.951Z,5.53
2023-05-12T06:29:13.209Z,4.80
2023-05-12T06:31:39.546Z,4.73
2023-05-12T06:34:05.862Z,5.47
2023-05-12T06:36:32.226Z,5.30
2023-05-12T06:38:58.980Z,4.83
2023-05-12T06:41:25.346Z,5.27
2023-05-12T06:43:51.972Z,4.60
2023-05-12T06:46:18.630Z,4.90
2023-05-12T06:48:44.986Z,4.60
2023-05-12T06:51:11.319Z,4.57
2023-05-12T06:53:38.091Z,4.50
2023-05-12T06:56:04.830Z,4.40
2023-05-12T06:58:32.086Z,4.43
2023-05-12T07:00:58.372Z,3.92
2023-05-12T07:03:24.735Z,4.20
2023-05-12T07:05:51.249Z,3.70
2023-05-12T07:08:17.777Z,3.60
2023-05-12T07:10:44.058Z,3.63
2023-05-12T07:13:10.416Z,3.28
2023-05-12T07:15:36.718Z,3.25
2023-05-12T07:18:03.086Z,3.63
2023-05-12T07:20:29.328Z,3.17
2023-05-12T07:22:56.493Z,3.20
2023-05-12T07:25:23.131Z,2.83
2023-05-12T07:27:50.374Z,3.13
2023-05-12T07:30:17.109Z,3.30
2023-05-12T07:32:43.436Z,3.20
2023-05-12T07:35:10.487Z,2.80
2023-05-12T07:37:36.791Z,2.90
2023-05-12T07:40:03.169Z,2.95
2023-05-12T07:42:29.916Z,3.17
2023-05-12T07:44:56.380Z,2.90
2023-05-12T07:47:22.620Z,2.83
2023-05-12T07:49:48.840Z,3.15
2023-05-12T07:52:15.095Z,3.38
2023-05-12T07:54:41.351Z,3.30
2023-05-12T07:57:07.678Z,3.33
2023-05-12T07:59:33.935Z,3.17
2023-05-12T08:02:00.275Z,3.20
2023-05-12T08:04:26.703Z,3.10
2023-05-12T08:06:53.075Z,3.10
2023-05-12T08:09:19.375Z,3.15
2023-05-12T08:11:48.126Z,3.00
2023-05-12T08:14:16.344Z,3.60
2023-05-12T08:16:45.452Z,3.22
2023-05-12T08:19:14.804Z,3.42
2023-05-12T08:21:41.236Z,3.45
2023-05-12T08:24:07.674Z,3.45
2023-05-12T08:26:33.990Z,3.80
2023-05-12T08:29:00.404Z,2.90
2023-05-12T08:31:26.750Z,3.53
2023-05-12T08:34:09.085Z,3.35
2023-05-12T08:36:36.443Z,3.05
2023-05-12T08:39:02.824Z,3.22
2023-05-12T08:41:42.242Z,2.97
2023-05-12T08:44:08.708Z,3.60
2023-05-12T08:46:35.402Z,3.10
2023-05-12T08:49:02.409Z,3.30
2023-05-12T08:51:31.373Z,3.05
2023-05-12T08:53:57.917Z,3.28
2023-05-12T08:58:55.243Z,3.00
2023-05-12T09:01:21.686Z,3.53
2023-05-12T09:03:48.033Z,2.85
2023-05-12T09:06:14.509Z,2.60
2023-05-12T09:08:40.931Z,2.97
2023-05-12T09:11:10.797Z,2.90
2023-05-12T09:13:56.017Z,3.33
2023-05-12T09:16:23.793Z,2.70
2023-05-12T09:18:51.626Z,3.17
2023-05-12T09:21:18.102Z,2.92
2023-05-12T09:24:06.645Z,3.15
2023-05-12T09:26:44.286Z,2.90
2023-05-12T09:29:15.769Z,2.60
2023-05-12T09:31:54.052Z,3.00
2023-05-12T09:34:26.722Z,3.20
2023-05-12T09:36:56.927Z,2.90
2023-05-12T09:39:23.461Z,3.40
2023-05-12T09:41:50.500Z,2.60
2023-05-12T09:44:17.010Z,2.63
2023-05-12T09:46:43.266Z,3.13
2023-05-12T09:49:09.507Z,2.57
2023-05-12T09:51:35.789Z,2.63
2023-05-12T09:54:02.214Z,2.90
2023-05-12T09:56:29.643Z,3.43
2023-05-12T09:58:57.063Z,3.10
2023-05-12T10:01:24.221Z,2.57
2023-05-12T10:03:55.405Z,2.90
2023-05-12T10:06:30.165Z,2.70
2023-05-12T10:09:16.393Z,2.60
2023-05-12T10:11:42.977Z,3.40
2023-05-12T10:14:10.017Z,2.90
2023-05-12T10:16:36.443Z,3.30
2023-05-12T10:19:03.320Z,2.70
2023-05-12T10:21:30.118Z,2.40
2023-05-12T10:24:03.619Z,3.10
2023-05-12T10:26:31.087Z,2.87
2023-05-12T10:28:58.148Z,2.77
2023-05-12T10:31:24.605Z,3.00
2023-05-12T10:34:00.263Z,2.63
2023-05-12T10:36:26.644Z,2.93
2023-05-12T10:38:53.356Z,2.92
2023-05-12T10:41:33.267Z,3.00
2023-05-12T10:43:59.708Z,2.97
2023-05-12T10:46:30.163Z,3.10
2023-05-12T10:49:07.032Z,3.20
2023-05-12T10:51:34.564Z,2.93
2023-05-12T10:54:04.841Z,2.90
2023-05-12T10:56:40.517Z,2.90
2023-05-12T10:59:18.875Z,3.10
2023-05-12T11:01:59.195Z,3.00
2023-05-12T11:04:43.778Z,3.03
2023-05-12T11:07:12.197Z,2.93
2023-05-12T11:09:50.376Z,3.30
2023-05-12T11:12:20.732Z,2.97
2023-05-12T11:14:47.072Z,3.00
2023-05-12T11:17:13.836Z,3.00
2023-05-12T11:19:40.339Z,2.80
2023-05-12T11:22:09.885Z,3.07
2023-05-12T11:24:36.924Z,3.10
2023-05-12T11:27:06.601Z,3.57
2023-05-12T11:29:32.841Z,3.40
2023-05-12T11:32:00.585Z,3.13
2023-05-12T11:34:27.333Z,3.17
2023-05-12T11:36:57.083Z,2.93
2023-05-12T11:39:24.647Z,3.53
2023-05-12T11:41:56.661Z,3.00
2023-05-12T11:44:29.212Z,3.00
2023-05-12T11:46:58.819Z,3.10
2023-05-12T11:49:25.683Z,3.07
2023-05-12T11:51:56.079Z,3.07
2023-05-12T11:54:23.067Z,2.93
2023-05-12T11:56:50.674Z,3.17
2023-05-12T11:59:33.147Z,3.63
2023-05-12T12:02:00.433Z,2.93
2023-05-12T12:04:37.397Z,3.17
2023-05-12T12:07:05.732Z,2.80
2023-05-12T12:09:32.718Z,2.77
2023-05-12T12:11:59.666Z,2.73
2023-05-12T12:14:25.928Z,2.60
2023-05-12T12:16:52.133Z,2.70
2023-05-12T12:19:18.474Z,2.80
2023-05-12T12:21:44.811Z,2.87
2023-05-12T12:24:14.316Z,3.07
2023-05-12T12:26:40.593Z,2.93
2023-05-12T12:29:06.884Z,3.00
2023-05-12T12:31:34.475Z,2.97
2023-05-12T12:34:00.791Z,2.80
2023-05-12T12:36:27.065Z,2.80
2023-05-12T12:38:53.398Z,2.97
2023-05-12T12:41:20.006Z,3.10
2023-05-12T12:43:46.236Z,2.70
2023-05-12T12:46:12.473Z,2.93
2023-05-12T12:48:38.893Z,3.10
2023-05-12T12:51:05.961Z,2.70
2023-05-12T12:53:32.187Z,2.90
2023-05-12T12:55:58.511Z,2.90
2023-05-12T12:58:24.733Z,2.77
2023-05-12T13:00:51.068Z,3.10
2023-05-12T13:03:20.113Z,2.97
2023-05-12T13:05:47.366Z,3.10
2023-05-12T13:08:13.602Z,3.10
2023-05-12T13:10:41.986Z,2.83
2023-05-12T13:13:08.281Z,3.00
2023-05-12T13:15:34.551Z,2.87
2023-05-12T13:18:00.815Z,2.63
2023-05-12T13:20:27.189Z,2.97
2023-05-12T13:22:53.444Z,3.13
2023-05-12T13:25:19.804Z,2.83
2023-05-12T13:27:46.166Z,2.50
2023-05-12T13:30:13.879Z,2.57
2023-05-12T13:32:40.432Z,2.93
2023-05-12T13:35:07.152Z,2.67
2023-05-12T13:37:33.368Z,2.80
2023-05-12T13:39:59.690Z,2.90
2023-05-12T13:42:26.407Z,2.93
2023-05-12T13:44:52.673Z,2.90
2023-05-12T13:47:19.165Z,2.70
2023-05-12T13:49:45.958Z,2.97
2023-05-12T13:52:12.261Z,2.70
2023-05-12T13:54:38.768Z,2.83
2023-05-12T13:57:06.086Z,2.43
2023-05-12T13:59:35.371Z,2.60
2023-05-12T14:02:02.152Z,3.23
2023-05-12T14:04:28.612Z,3.03
2023-05-12T14:06:55.385Z,2.70
2023-05-12T14:09:21.948Z,2.67
2023-05-12T14:11:48.209Z,2.83
2023-05-12T14:14:14.452Z,2.70
2023-05-12T14:16:40.865Z,2.70
2023-05-12T14:19:07.263Z,2.97
2023-05-12T14:21:33.532Z,2.93
2023-05-12T14:23:59.795Z,3.17
2023-05-12T14:26:26.072Z,3.20
2023-05-12T14:28:53.524Z,2.73
2023-05-12T14:31:19.864Z,2.77
2023-05-12T14:33:46.352Z,2.50
2023-05-12T14:36:12.586Z,2.50
2023-05-12T14:38:38.865Z,3.10
2023-05-12T14:41:07.074Z,2.50
2023-05-12T14:43:33.466Z,2.90
2023-05-12T14:46:00.476Z,3.00
2023-05-12T14:48:27.152Z,2.73
2023-05-12T14:50:53.667Z,2.77
2023-05-12T14:53:20.031Z,2.80
2023-05-12T14:55:46.633Z,3.07
2023-05-12T14:58:13.647Z,2.57
2023-05-12T15:00:39.955Z,2.80
2023-05-12T15:03:07.541Z,3.00
2023-05-12T15:05:47.711Z,2.90
2023-05-12T15:08:21.361Z,2.33
2023-05-12T15:10:47.774Z,3.20
2023-05-12T15:13:15.868Z,2.60
2023-05-12T15:15:42.258Z,2.83
2023-05-12T15:18:08.589Z,3.20
2023-05-12T15:20:34.893Z,2.70
2023-05-12T15:23:01.183Z,2.57
2023-05-12T15:25:32.886Z,2.73
2023-05-12T15:27:59.120Z,2.87
2023-05-12T15:30:25.427Z,3.10
2023-05-12T15:32:51.744Z,3.03
2023-05-12T15:35:18.183Z,2.90
2023-05-12T15:37:44.639Z,2.70
2023-05-12T15:40:13.012Z,3.10
2023-05-12T15:42:39.604Z,3.00
2023-05-12T15:45:06.276Z,3.20
2023-05-12T15:47:34.074Z,2.80
2023-05-12T15:50:00.642Z,2.70
2023-05-12T15:52:27.777Z,2.80
2023-05-12T15:54:54.123Z,3.00
2023-05-12T15:57:20.398Z,3.00
2023-05-12T15:59:46.781Z,2.83
2023-05-12T16:02:13.493Z,2.50
2023-05-12T16:04:39.845Z,2.40
2023-05-12T16:07:06.264Z,3.50
2023-05-12T16:09:32.561Z,2.60
2023-05-12T16:11:58.960Z,3.50
2023-05-12T16:14:25.575Z,2.63
2023-05-12T16:16:52.071Z,3.00
2023-05-12T16:19:18.478Z,2.80
2023-05-12T16:21:44.766Z,3.33
2023-05-12T16:24:11.489Z,2.37
2023-05-12T16:26:38.145Z,2.93
2023-05-12T16:29:04.493Z,2.77
2023-05-12T16:31:30.959Z,2.87
2023-05-12T16:33:57.516Z,2.40
2023-05-12T16:36:24.651Z,2.37
2023-05-12T16:38:51.276Z,2.83
2023-05-12T16:41:18.475Z,2.70
2023-05-12T16:43:44.919Z,2.70
2023-05-12T16:46:11.569Z,2.97
2023-05-12T16:48:38.285Z,2.90
2023-05-12T16:51:05.711Z,3.07
2023-05-12T16:53:32.594Z,2.43
2023-05-12T16:55:59.248Z,3.10
2023-05-12T16:58:27.522Z,2.77
2023-05-12T17:00:53.946Z,2.90
2023-05-12T17:03:20.448Z,2.90
2023-05-12T17:05:47.081Z,2.97
2023-05-12T17:08:13.614Z,3.10
2023-05-12T17:10:40.011Z,2.97
2023-05-12T17:13:06.603Z,2.80
2023-05-12T17:15:32.866Z,3.00
2023-05-12T17:17:59.202Z,3.10
2023-05-12T17:20:25.712Z,3.10
2023-05-12T17:22:51.956Z,2.83
2023-05-12T17:25:19.060Z,2.70
2023-05-12T17:27:47.068Z,2.90
2023-05-12T17:30:13.882Z,3.13
2023-05-12T17:32:40.238Z,2.80
2023-05-12T17:35:07.973Z,2.60
2023-05-12T17:37:34.785Z,2.90
2023-05-12T17:40:01.501Z,3.00
2023-05-12T17:42:31.150Z,3.10
2023-05-12T17:44:58.458Z,3.03
2023-05-12T17:47:25.588Z,2.93
2023-05-12T17:49:52.254Z,2.80
2023-05-12T17:52:19.202Z,2.80
2023-05-12T17:54:45.678Z,3.10
2023-05-12T17:57:12.034Z,2.93
2023-05-12T17:59:38.405Z,2.90
2023-05-12T18:02:05.817Z,3.00
2023-05-12T18:04:32.277Z,3.03
2023-05-12T18:06:59.416Z,3.23
2023-05-12T18:09:25.795Z,2.83
2023-05-12T18:11:52.596Z,3.07
2023-05-12T18:14:18.938Z,3.03
2023-05-12T18:16:45.381Z,2.93
2023-05-12T18:19:11.797Z,2.83
2023-05-12T18:21:38.133Z,3.30
2023-05-12T18:24:04.802Z,3.13
2023-05-12T18:26:31.114Z,2.90
2023-05-12T18:28:57.667Z,3.10
2023-05-12T18:31:24.116Z,3.60
2023-05-12T18:33:50.719Z,2.83
2023-05-12T18:36:17.368Z,3.20
2023-05-12T18:38:43.753Z,2.93
2023-05-12T18:41:10.304Z,3.30
2023-05-12T18:43:36.690Z,3.17
2023-05-12T18:46:03.424Z,3.20
2023-05-12T18:48:30.083Z,3.47
2023-05-12T18:50:56.645Z,3.67
2023-05-12T18:53:23.306Z,3.40
2023-05-12T18:55:50.272Z,3.70
2023-05-12T18:58:17.166Z,3.80
2023-05-12T19:00:43.792Z,3.30
2023-05-12T19:03:10.274Z,3.30
2023-05-12T19:05:37.026Z,3.37
2023-05-12T19:08:03.465Z,3.30
2023-05-12T19:10:29.817Z,3.40
2023-05-12T19:12:56.191Z,3.10
2023-05-12T19:15:22.894Z,3.53
2023-05-12T19:17:49.517Z,3.40
2023-05-12T19:20:15.953Z,3.57
2023-05-12T19:22:42.374Z,3.50
2023-05-12T19:25:09.399Z,3.40
2023-05-12T19:27:35.782Z,3.40
2023-05-12T19:30:04.944Z,3.30
2023-05-12T19:32:32.322Z,3.63
2023-05-12T19:35:00.574Z,3.60
2023-05-12T19:37:27.573Z,3.60
2023-05-12T19:39:53.896Z,3.60
2023-05-12T19:42:20.338Z,3.70
2023-05-12T19:44:46.678Z,3.30
2023-05-12T19:47:14.042Z,3.23
2023-05-12T19:49:40.473Z,3.30
2023-05-12T19:52:06.940Z,3.43
2023-05-12T19:54:33.488Z,3.23
2023-05-12T19:56:59.857Z,3.37
2023-05-12T19:59:26.857Z,3.17
2023-05-12T20:01:53.370Z,3.40
2023-05-12T20:04:19.684Z,3.60
2023-05-12T20:06:45.943Z,3.50
2023-05-12T20:15:30.820Z,3.70
2023-05-12T20:17:57.311Z,3.20
2023-05-12T20:20:23.600Z,3.63
2023-05-12T20:22:49.886Z,3.40
2023-05-12T20:25:17.709Z,3.57
2023-05-12T20:27:44.179Z,3.40
2023-05-12T20:30:12.053Z,3.77
2023-05-12T20:32:38.358Z,3.70
2023-05-12T20:35:05.376Z,3.43
2023-05-12T20:37:31.684Z,3.40
2023-05-12T20:39:57.919Z,3.57
2023-05-12T20:42:24.294Z,3.50
2023-05-12T20:44:50.943Z,3.87
2023-05-12T20:47:17.196Z,4.20
2023-05-12T20:49:45.030Z,3.60
2023-05-12T20:52:11.302Z,3.70
2023-05-12T20:54:38.539Z,4.40
2023-05-12T20:57:04.878Z,3.87
2023-05-12T20:59:31.351Z,3.80
2023-05-12T21:01:57.745Z,3.60
2023-05-12T21:04:24.060Z,3.90
2023-05-12T21:06:52.658Z,3.80
2023-05-12T21:09:20.111Z,3.77
2023-05-12T21:11:46.407Z,3.67
2023-05-12T21:14:12.686Z,3.47
2023-05-12T21:16:38.932Z,3.90
2023-05-12T21:19:05.264Z,4.00
2023-05-12T21:21:31.667Z,3.53
2023-05-12T21:23:57.963Z,3.73
2023-05-12T21:26:25.982Z,3.80
2023-05-12T21:28:52.241Z,3.80
2023-05-12T21:31:18.515Z,3.83
2023-05-12T21:33:44.889Z,3.77
2023-05-12T21:36:11.215Z,3.73
2023-05-12T21:38:37.464Z,3.53
2023-05-12T21:41:03.756Z,3.63
2023-05-12T21:43:30.002Z,3.93
2023-05-12T21:45:56.293Z,3.77
2023-05-12T21:48:22.588Z,3.73
2023-05-12T21:50:59.035Z,3.73
2023-05-12T21:53:25.366Z,3.77
2023-05-12T21:55:51.689Z,3.80
2023-05-12T21:58:18.349Z,4.10
2023-05-12T22:00:44.702Z,4.23
2023-05-12T22:03:11.257Z,3.37
2023-05-12T22:05:37.662Z,3.90
2023-05-12T22:08:03.945Z,3.50
2023-05-12T22:10:32.145Z,4.03
2023-05-12T22:12:58.376Z,3.70
2023-05-12T22:15:24.611Z,3.70
2023-05-12T22:17:50.900Z,3.40
2023-05-12T22:20:18.281Z,3.50
2023-05-12T22:22:45.045Z,3.80
2023-05-12T22:25:11.346Z,3.80
2023-05-12T22:27:37.993Z,3.80
2023-05-12T22:30:04.540Z,3.70
2023-05-12T22:32:30.838Z,3.90
2023-05-12T22:34:57.091Z,3.90
2023-05-12T22:37:23.824Z,3.93
2023-05-12T22:39:50.073Z,3.83
2023-05-12T22:42:16.294Z,4.10
2023-05-12T22:44:42.590Z,4.07
2023-05-12T22:47:08.996Z,3.80
2023-05-12T22:49:35.595Z,3.77
2023-05-12T22:52:01.823Z,4.03
2023-05-12T22:54:28.216Z,3.90
2023-05-12T22:56:54.432Z,3.97
2023-05-12T22:59:20.654Z,4.00
2023-05-12T23:01:46.917Z,4.00
2023-05-12T23:04:13.438Z,3.90
2023-05-12T23:06:39.736Z,3.80
2023-05-12T23:09:06.093Z,4.03
2023-05-12T23:11:32.407Z,3.93
2023-05-12T23:13:58.831Z,3.77
2023-05-12T23:16:25.654Z,4.33
2023-05-12T23:18:52.040Z,3.43
2023-05-12T23:21:18.367Z,3.77
2023-05-12T23:23:44.695Z,3.80
2023-05-12T23:26:10.938Z,3.87
2023-05-12T23:28:37.283Z,4.10
2023-05-12T23:31:03.534Z,3.70
2023-05-12T23:33:29.962Z,4.13
2023-05-12T23:35:56.469Z,3.93
2023-05-12T23:38:22.724Z,3.87
2023-05-12T23:40:48.981Z,4.27
2023-05-12T23:43:15.421Z,4.60
2023-05-12T23:45:42.064Z,3.80
2023-05-12T23:48:08.401Z,3.87
2023-05-12T23:50:34.708Z,3.90
2023-05-12T23:53:01.053Z,3.90
2023-05-12T23:55:27.314Z,4.07
2023-05-12T23:57:53.554Z,4.20
